Time;durP1;ratioP1;P1;durP2;ratioP2;P2;SDS_P1;SDS_P2;PMS_P1;PMS_P2;Temp;Humidity;BMP_temperature;BMP_pressure;BME280_temperature;BME280_humidity;BME280_pressure;Samples;Min_cycle;Max_cycle;Signal;HPM_P1;HPM_P2
2023/09/17 00:00:05;;;;;;;12.85;7.75;;;17.90;99.90;;;;;;5131329;27;20064;-50
2023/09/17 00:02:31;;;;;;;13.23;7.53;;;17.90;99.90;;;;;;5130763;27;20038;-58
2023/09/17 00:04:57;;;;;;;10.35;6.70;;;17.90;99.90;;;;;;5131674;27;20015;-56
2023/09/17 00:07:23;;;;;;;14.88;7.43;;;17.90;99.90;;;;;;5131851;27;20114;-58
2023/09/17 00:09:49;;;;;;;15.85;7.82;;;17.90;99.90;;;;;;5131307;27;20099;-55
2023/09/17 00:12:15;;;;;;;17.83;7.38;;;17.80;99.90;;;;;;5131536;27;20034;-53
2023/09/17 00:14:41;;;;;;;14.07;8.02;;;17.80;99.90;;;;;;5131321;27;20424;-49
2023/09/17 00:17:06;;;;;;;12.88;8.32;;;17.80;99.90;;;;;;5131320;27;20096;-52
2023/09/17 00:19:32;;;;;;;14.30;7.70;;;17.80;99.90;;;;;;5105788;28;20055;-56
2023/09/17 00:21:58;;;;;;;15.30;7.80;;;17.80;99.90;;;;;;5112733;28;20026;-50
2023/09/17 00:24:24;;;;;;;15.00;7.68;;;17.80;99.90;;;;;;5130540;28;20114;-50
2023/09/17 00:26:50;;;;;;;14.70;8.05;;;17.80;99.90;;;;;;5131468;27;20023;-52
2023/09/17 00:29:16;;;;;;;13.60;8.07;;;17.80;99.90;;;;;;5131117;27;20019;-51
2023/09/17 00:31:42;;;;;;;15.10;8.15;;;17.80;99.90;;;;;;5131376;27;20041;-50
2023/09/17 00:34:07;;;;;;;11.48;7.63;;;17.90;99.90;;;;;;5131253;28;20467;-54
2023/09/17 00:36:33;;;;;;;12.07;7.93;;;17.80;99.90;;;;;;5131327;27;20019;-53
2023/09/17 00:38:59;;;;;;;14.55;8.52;;;17.80;99.90;;;;;;5131121;27;20044;-49
2023/09/17 00:41:25;;;;;;;14.13;8.40;;;17.80;99.90;;;;;;5131178;27;20507;-54
2023/09/17 00:43:51;;;;;;;18.30;8.00;;;17.80;99.90;;;;;;5131072;27;20054;-49
2023/09/17 00:46:19;;;;;;;14.27;8.15;;;17.80;99.90;;;;;;5131107;27;20543;-55
2023/09/17 00:48:45;;;;;;;13.27;7.93;;;17.80;99.90;;;;;;5131269;27;20538;-51
2023/09/17 00:51:11;;;;;;;15.10;7.35;;;17.80;99.90;;;;;;5130982;27;20125;-47
2023/09/17 00:53:37;;;;;;;11.13;7.18;;;17.80;99.90;;;;;;5131236;28;20019;-55
2023/09/17 00:56:03;;;;;;;12.85;7.50;;;17.80;99.90;;;;;;5131221;28;20028;-49
2023/09/17 00:58:31;;;;;;;16.15;7.53;;;17.80;99.90;;;;;;5130909;27;20018;-45
2023/09/17 01:01:00;;;;;;;12.85;6.85;;;17.80;99.90;;;;;;5130884;27;20031;-47
2023/09/17 01:03:27;;;;;;;12.18;7.88;;;17.80;99.90;;;;;;5131120;28;20023;-50
2023/09/17 01:05:54;;;;;;;12.20;8.07;;;17.80;99.90;;;;;;5131090;28;20630;-47
2023/09/17 01:08:22;;;;;;;11.32;6.95;;;17.80;99.90;;;;;;5130946;28;20472;-53
2023/09/17 01:10:49;;;;;;;13.40;7.85;;;17.80;99.90;;;;;;5131000;27;20035;-47
2023/09/17 01:13:15;;;;;;;9.73;6.95;;;17.80;99.90;;;;;;5132803;27;20147;-53
2023/09/17 01:15:41;;;;;;;13.60;7.05;;;17.80;99.90;;;;;;5134863;27;20027;-53
2023/09/17 01:18:09;;;;;;;12.02;8.07;;;17.80;99.90;;;;;;5134630;27;20135;-53
2023/09/17 01:21:01;;;;;;;12.77;7.45;;;17.80;99.90;;;;;;5116874;27;20024;-50
2023/09/17 01:23:38;;;;;;;12.70;7.18;;;17.80;99.90;;;;;;5117428;27;20024;-49
2023/09/17 01:26:16;;;;;;;14.55;7.28;;;17.70;99.90;;;;;;5126945;27;20023;-43
2023/09/17 01:28:41;;;;;;;14.00;7.72;;;17.70;99.90;;;;;;5113867;28;20051;-59
2023/09/17 01:31:09;;;;;;;11.38;6.85;;;17.70;99.90;;;;;;5133358;27;20054;-47
2023/09/17 01:33:35;;;;;;;9.48;6.90;;;17.70;99.90;;;;;;5134335;27;20023;-46
2023/09/17 01:36:08;;;;;;;12.18;7.88;;;17.70;99.90;;;;;;5131003;27;20028;-57
2023/09/17 01:38:39;;;;;;;13.30;8.05;;;17.70;99.90;;;;;;5124277;27;20062;-51
2023/09/17 01:41:06;;;;;;;14.35;7.80;;;17.70;99.90;;;;;;5134223;27;20030;-46
2023/09/17 01:43:33;;;;;;;15.25;8.52;;;17.80;99.90;;;;;;5134241;27;20031;-50
2023/09/17 01:46:00;;;;;;;13.68;9.10;;;17.70;99.90;;;;;;5133872;27;20114;-48
2023/09/17 01:48:27;;;;;;;15.15;8.88;;;17.70;99.90;;;;;;5134116;27;20055;-45
2023/09/17 01:50:54;;;;;;;11.98;7.22;;;17.70;99.90;;;;;;5133893;27;20107;-47
2023/09/17 01:53:20;;;;;;;14.18;7.95;;;17.60;99.90;;;;;;5128406;27;20016;-46
2023/09/17 01:55:50;;;;;;;15.38;7.03;;;17.60;99.90;;;;;;5124682;27;20050;-49
2023/09/17 01:58:17;;;;;;;12.38;8.02;;;17.50;99.90;;;;;;5133712;27;20022;-44
2023/09/17 02:00:43;;;;;;;13.50;7.63;;;17.40;99.90;;;;;;5133686;27;20027;-48
2023/09/17 02:03:09;;;;;;;11.45;7.90;;;17.40;99.90;;;;;;5133716;27;20034;-52
2023/09/17 02:05:34;;;;;;;18.48;8.70;;;17.40;99.90;;;;;;5104641;28;20085;-51
2023/09/17 02:08:00;;;;;;;13.00;8.23;;;17.30;99.90;;;;;;5112948;28;20098;-53
2023/09/17 02:10:26;;;;;;;18.13;9.25;;;17.30;99.90;;;;;;5112673;28;20376;-53
2023/09/17 02:12:51;;;;;;;15.15;8.85;;;17.20;99.90;;;;;;5112943;28;20039;-50
2023/09/17 02:15:18;;;;;;;14.18;7.70;;;17.20;99.90;;;;;;5112629;28;20022;-46
2023/09/17 02:17:44;;;;;;;16.13;8.60;;;17.20;99.90;;;;;;5112802;27;20026;-49
2023/09/17 02:20:11;;;;;;;13.00;8.38;;;17.20;99.90;;;;;;5112574;28;20015;-50
2023/09/17 02:22:38;;;;;;;12.77;8.00;;;17.10;99.90;;;;;;5112432;28;20486;-49
2023/09/17 02:25:05;;;;;;;12.75;8.65;;;17.10;99.90;;;;;;5111346;28;20404;-48
2023/09/17 02:27:31;;;;;;;17.80;8.90;;;17.10;99.90;;;;;;5112499;28;20027;-47
2023/09/17 02:29:57;;;;;;;13.77;7.60;;;17.10;99.90;;;;;;5124694;27;20147;-46
2023/09/17 02:32:23;;;;;;;12.13;7.68;;;17.10;99.90;;;;;;5132771;27;20034;-45
2023/09/17 02:34:49;;;;;;;14.32;8.02;;;17.10;99.90;;;;;;5133186;27;20028;-51
2023/09/17 02:37:14;;;;;;;13.15;7.57;;;17.10;99.90;;;;;;5132940;27;20567;-49
2023/09/17 02:39:40;;;;;;;10.35;7.28;;;17.10;99.90;;;;;;5133117;27;20023;-56
2023/09/17 02:42:06;;;;;;;11.52;7.95;;;17.10;99.90;;;;;;5133126;27;20031;-51
2023/09/17 02:44:32;;;;;;;12.07;7.28;;;17.10;99.90;;;;;;5132821;27;20435;-50
2023/09/17 02:46:57;;;;;;;13.60;7.30;;;17.10;99.90;;;;;;5132661;27;20429;-49
2023/09/17 02:49:23;;;;;;;13.85;7.80;;;17.10;99.90;;;;;;5132609;27;20016;-43
2023/09/17 02:51:50;;;;;;;12.32;7.45;;;17.00;99.90;;;;;;5132723;27;20031;-46
2023/09/17 02:54:15;;;;;;;12.27;6.80;;;17.00;99.90;;;;;;5132329;27;20027;-49
2023/09/17 02:56:42;;;;;;;11.80;7.43;;;17.00;99.90;;;;;;5132645;27;20110;-51
2023/09/17 02:59:08;;;;;;;11.57;6.72;;;17.00;99.90;;;;;;5132613;27;20019;-44
2023/09/17 03:01:35;;;;;;;12.93;7.10;;;16.90;99.90;;;;;;5132256;27;20479;-53
2023/09/17 03:04:01;;;;;;;12.00;7.80;;;17.00;99.90;;;;;;5132449;27;20023;-53
2023/09/17 03:06:27;;;;;;;13.23;8.02;;;16.90;99.90;;;;;;5132493;27;20053;-54
2023/09/17 03:08:54;;;;;;;15.35;7.25;;;16.90;99.90;;;;;;5132565;27;20058;-54
2023/09/17 03:11:21;;;;;;;14.27;8.02;;;16.80;99.90;;;;;;5132209;27;20507;-53
2023/09/17 03:13:47;;;;;;;13.38;7.55;;;16.90;99.90;;;;;;5132298;27;20068;-48
2023/09/17 03:16:15;;;;;;;13.02;7.85;;;16.90;99.90;;;;;;5132103;27;20046;-50
2023/09/17 03:18:42;;;;;;;15.73;9.30;;;16.90;99.90;;;;;;5132201;27;20493;-49
2023/09/17 03:21:09;;;;;;;16.15;9.25;;;17.00;99.90;;;;;;5132140;27;20546;-52
2023/09/17 03:23:35;;;;;;;17.65;9.65;;;17.00;99.90;;;;;;5132064;27;20084;-50
2023/09/17 03:26:01;;;;;;;19.27;9.55;;;17.00;99.90;;;;;;5132106;27;20463;-56
2023/09/17 03:28:31;;;;;;;15.65;9.57;;;17.00;99.90;;;;;;5118197;27;20475;-51
2023/09/17 03:30:58;;;;;;;18.80;10.02;;;17.10;99.90;;;;;;5132018;27;20051;-46
2023/09/17 03:33:24;;;;;;;16.83;9.32;;;17.10;99.90;;;;;;5132218;27;20027;-52
2023/09/17 03:35:51;;;;;;;16.85;10.75;;;17.10;99.90;;;;;;5131745;27;20019;-51
2023/09/17 03:38:17;;;;;;;17.85;10.95;;;17.20;99.90;;;;;;5131783;27;20100;-57
2023/09/17 03:40:42;;;;;;;17.70;10.13;;;17.20;99.90;;;;;;5131607;27;20019;-60
2023/09/17 03:43:08;;;;;;;18.00;10.93;;;17.30;99.90;;;;;;5131799;27;20415;-56
2023/09/17 03:45:34;;;;;;;19.70;10.98;;;17.30;99.90;;;;;;5131570;27;20023;-54
2023/09/17 03:48:00;;;;;;;19.42;10.68;;;17.30;99.90;;;;;;5131770;27;20019;-48
2023/09/17 03:50:27;;;;;;;23.33;10.73;;;17.40;99.90;;;;;;5131597;27;20023;-53
2023/09/17 03:52:55;;;;;;;22.85;12.00;;;17.40;99.90;;;;;;5131456;27;20023;-52
2023/09/17 03:55:21;;;;;;;22.08;11.40;;;17.40;99.90;;;;;;5131505;27;20022;-53
2023/09/17 03:57:47;;;;;;;20.48;11.57;;;17.50;99.90;;;;;;5131275;27;20076;-56
2023/09/17 04:00:15;;;;;;;23.58;13.13;;;17.50;99.90;;;;;;5131587;27;20027;-61
2023/09/17 04:02:41;;;;;;;25.42;13.50;;;17.50;99.90;;;;;;5131658;27;20528;-54
2023/09/17 04:05:10;;;;;;;18.08;11.52;;;17.60;99.90;;;;;;5131632;27;20047;-55
2023/09/17 04:07:40;;;;;;;22.80;11.82;;;17.60;99.90;;;;;;5131486;27;20023;-52
2023/09/17 04:10:06;;;;;;;22.58;12.10;;;17.60;99.90;;;;;;5131351;27;20046;-54
2023/09/17 04:12:33;;;;;;;19.77;11.07;;;17.60;99.90;;;;;;5131106;27;20039;-55
2023/09/17 04:14:58;;;;;;;25.25;12.40;;;17.70;99.90;;;;;;5131240;28;20539;-52
2023/09/17 04:17:24;;;;;;;24.00;11.93;;;17.70;99.90;;;;;;5131291;27;20110;-53
2023/09/17 04:19:50;;;;;;;19.70;11.57;;;17.80;99.90;;;;;;5131232;28;20045;-49
2023/09/17 04:22:16;;;;;;;23.02;11.15;;;17.80;99.90;;;;;;5131372;28;20019;-49
2023/09/17 04:24:43;;;;;;;25.45;11.75;;;17.80;99.90;;;;;;5131087;27;20038;-52
2023/09/17 04:27:08;;;;;;;23.55;11.80;;;17.80;99.90;;;;;;5129126;28;20023;-54
2023/09/17 04:29:35;;;;;;;19.88;11.15;;;17.80;99.90;;;;;;5119507;28;20034;-54
2023/09/17 04:32:01;;;;;;;21.67;11.50;;;17.80;99.90;;;;;;5131000;28;20491;-53
2023/09/17 04:34:26;;;;;;;17.73;10.48;;;17.80;99.90;;;;;;5131344;27;20071;-52
2023/09/17 04:36:52;;;;;;;20.27;11.35;;;17.80;99.90;;;;;;5131118;27;20357;-45
2023/09/17 04:39:18;;;;;;;18.77;10.75;;;17.80;99.90;;;;;;5130856;27;20176;-53
2023/09/17 04:41:44;;;;;;;20.45;11.00;;;17.80;99.90;;;;;;5131112;27;20019;-54
2023/09/17 04:44:10;;;;;;;19.30;10.75;;;17.80;99.90;;;;;;5131150;27;20506;-46
2023/09/17 04:46:40;;;;;;;18.67;10.70;;;17.80;99.90;;;;;;5131267;27;20031;-44
2023/09/17 04:49:06;;;;;;;21.67;10.95;;;17.80;99.90;;;;;;5134693;27;20019;-60
2023/09/17 04:51:33;;;;;;;22.90;10.90;;;17.80;99.90;;;;;;5135169;27;20028;-50
2023/09/17 04:53:59;;;;;;;18.30;11.15;;;17.80;99.90;;;;;;5135299;27;20031;-50
2023/09/17 04:56:25;;;;;;;17.52;10.60;;;17.90;99.90;;;;;;5134929;27;20027;-49
2023/09/17 04:58:50;;;;;;;17.70;10.38;;;17.90;99.90;;;;;;5135213;27;20029;-51
2023/09/17 05:01:16;;;;;;;20.83;11.48;;;17.90;99.90;;;;;;5135049;27;20057;-55
2023/09/17 05:03:46;;;;;;;21.48;11.32;;;17.90;99.90;;;;;;5135102;27;20023;-49
2023/09/17 05:06:12;;;;;;;22.13;11.18;;;17.90;99.90;;;;;;5134728;27;20532;-44
2023/09/17 05:08:38;;;;;;;21.55;11.45;;;17.90;99.90;;;;;;5134789;27;20023;-52
2023/09/17 05:11:05;;;;;;;19.58;10.95;;;17.90;99.90;;;;;;5134701;27;20047;-44
2023/09/17 05:13:31;;;;;;;20.05;11.00;;;17.90;99.90;;;;;;5135036;27;20019;-57
2023/09/17 05:15:56;;;;;;;20.05;11.38;;;17.90;99.90;;;;;;5134707;27;20115;-58
2023/09/17 05:18:22;;;;;;;19.45;11.70;;;17.90;99.90;;;;;;5134654;27;20027;-49
2023/09/17 05:20:48;;;;;;;20.50;11.05;;;17.90;99.90;;;;;;5134497;27;20054;-56
2023/09/17 05:23:14;;;;;;;20.92;11.85;;;17.90;99.90;;;;;;5134519;27;20035;-55
2023/09/17 05:25:39;;;;;;;16.95;10.43;;;17.90;99.90;;;;;;5134714;27;20494;-53
2023/09/17 05:28:08;;;;;;;19.83;11.07;;;17.90;99.90;;;;;;5123946;27;20024;-56
2023/09/17 05:30:34;;;;;;;23.33;11.43;;;17.80;99.90;;;;;;5131061;27;20096;-45
2023/09/17 05:33:00;;;;;;;17.38;9.85;;;17.80;99.90;;;;;;5134501;27;20307;-51
2023/09/17 05:35:26;;;;;;;20.38;11.02;;;17.80;99.90;;;;;;5134322;27;20063;-48
2023/09/17 05:37:52;;;;;;;17.00;9.48;;;17.80;99.90;;;;;;5134055;27;20077;-55
2023/09/17 05:40:17;;;;;;;16.70;9.60;;;17.80;99.90;;;;;;5134517;27;20027;-54
2023/09/17 05:42:46;;;;;;;20.05;10.77;;;17.80;99.90;;;;;;5134373;27;20016;-55
2023/09/17 05:45:11;;;;;;;19.23;11.05;;;17.70;99.90;;;;;;5134315;27;20031;-52
2023/09/17 05:47:37;;;;;;;21.08;10.80;;;17.70;99.90;;;;;;5134105;27;20016;-54
2023/09/17 05:50:03;;;;;;;19.10;11.48;;;17.70;99.90;;;;;;5134103;27;20395;-56
2023/09/17 05:52:29;;;;;;;20.48;10.55;;;17.80;99.90;;;;;;5123550;27;20039;-56
2023/09/17 05:54:55;;;;;;;22.42;11.13;;;17.80;99.90;;;;;;5113371;28;20480;-59
2023/09/17 05:57:20;;;;;;;23.27;11.77;;;17.80;99.90;;;;;;5113591;28;20080;-54
2023/09/17 05:59:46;;;;;;;21.45;11.68;;;17.80;99.90;;;;;;5113162;28;20012;-47
2023/09/17 06:02:12;;;;;;;19.17;11.77;;;17.90;99.90;;;;;;5113256;28;20054;-55
2023/09/17 06:04:38;;;;;;;17.38;10.45;;;17.90;99.90;;;;;;5113112;28;20024;-57
2023/09/17 06:07:03;;;;;;;19.77;11.68;;;17.90;99.90;;;;;;5113104;28;20030;-61
2023/09/17 06:09:30;;;;;;;16.58;9.95;;;18.00;99.90;;;;;;5113063;28;20468;-51
2023/09/17 06:11:57;;;;;;;19.88;11.82;;;18.00;99.90;;;;;;5113045;28;20059;-56
2023/09/17 06:14:23;;;;;;;21.13;11.93;;;18.00;99.90;;;;;;5113239;28;20015;-56
2023/09/17 06:16:48;;;;;;;23.77;12.25;;;18.10;99.90;;;;;;5112926;28;20026;-58
2023/09/17 06:19:14;;;;;;;21.85;12.27;;;18.10;99.90;;;;;;5112913;28;20031;-48
2023/09/17 06:21:41;;;;;;;19.55;11.93;;;18.10;99.90;;;;;;5112730;28;20031;-51
2023/09/17 06:24:07;;;;;;;23.20;11.95;;;18.10;99.90;;;;;;5113010;28;20137;-49
2023/09/17 06:26:35;;;;;;;23.15;11.90;;;18.10;99.90;;;;;;5112800;28;20055;-50
2023/09/17 06:29:00;;;;;;;24.58;13.85;;;18.20;99.90;;;;;;5116838;27;20056;-56
2023/09/17 06:31:26;;;;;;;27.52;14.82;;;18.20;99.90;;;;;;5133145;27;20042;-46
2023/09/17 06:33:53;;;;;;;24.08;13.65;;;18.30;99.90;;;;;;5130695;27;20042;-51
2023/09/17 06:36:19;;;;;;;26.73;12.48;;;18.30;99.90;;;;;;5114479;27;20467;-43
2023/09/17 06:38:46;;;;;;;22.80;12.98;;;18.40;99.90;;;;;;5116618;27;20122;-57
2023/09/17 06:41:12;;;;;;;22.13;12.95;;;18.50;99.90;;;;;;5112700;27;20484;-52
2023/09/17 06:43:38;;;;;;;26.45;13.05;;;18.50;99.90;;;;;;5112527;28;20026;-51
2023/09/17 06:46:04;;;;;;;18.52;11.40;;;18.60;99.90;;;;;;5128143;27;20018;-53
2023/09/17 06:48:29;;;;;;;19.17;12.00;;;18.60;99.90;;;;;;5112190;28;20023;-55
2023/09/17 06:50:56;;;;;;;22.23;12.48;;;18.70;99.90;;;;;;5112466;28;20026;-50
2023/09/17 06:53:21;;;;;;;22.45;12.93;;;18.70;99.90;;;;;;5112182;28;20032;-45
2023/09/17 06:55:47;;;;;;;23.15;12.35;;;18.80;99.90;;;;;;5112214;28;20027;-54
2023/09/17 06:58:16;;;;;;;22.55;11.60;;;18.90;99.90;;;;;;5112205;28;20077;-49
2023/09/17 07:00:47;;;;;;;23.40;12.15;;;18.90;99.90;;;;;;5112295;27;20032;-50
2023/09/17 07:03:13;;;;;;;21.38;11.43;;;18.90;99.90;;;;;;5111911;28;20080;-51
2023/09/17 07:05:39;;;;;;;20.13;10.35;;;19.00;99.90;;;;;;5112216;28;20016;-56
2023/09/17 07:08:05;;;;;;;17.40;9.98;;;19.10;99.90;;;;;;5111882;28;20486;-44
2023/09/17 07:10:32;;;;;;;15.80;9.52;;;19.10;99.90;;;;;;5111361;28;20027;-51
2023/09/17 07:12:57;;;;;;;18.70;10.23;;;19.10;99.90;;;;;;5111858;28;20075;-54
2023/09/17 07:15:25;;;;;;;12.65;8.02;;;19.10;99.90;;;;;;5111687;28;20055;-48
2023/09/17 07:17:52;;;;;;;13.85;7.82;;;19.10;99.90;;;;;;5093609;28;20032;-56
2023/09/17 07:20:19;;;;;;;13.32;8.40;;;19.10;99.90;;;;;;5112116;28;20028;-56
2023/09/17 07:22:46;;;;;;;12.65;8.40;;;19.10;99.90;;;;;;5111783;28;20020;-54
2023/09/17 07:25:12;;;;;;;15.88;7.43;;;19.00;99.90;;;;;;5111659;28;20027;-51
2023/09/17 07:27:39;;;;;;;12.77;7.53;;;19.10;99.90;;;;;;5111499;28;20035;-44
2023/09/17 07:30:05;;;;;;;13.55;8.50;;;19.10;99.90;;;;;;5124723;27;20015;-58
2023/09/17 07:32:31;;;;;;;12.45;6.90;;;19.10;99.90;;;;;;5131866;27;20123;-55
2023/09/17 07:34:57;;;;;;;12.82;7.20;;;19.20;99.90;;;;;;5131786;27;20029;-47
2023/09/17 07:37:23;;;;;;;15.65;7.88;;;19.40;99.90;;;;;;5114438;27;20840;-52
2023/09/17 07:39:56;;;;;;;15.52;7.25;;;19.70;99.90;;;;;;5111465;28;20028;-49
2023/09/17 07:42:22;;;;;;;12.93;7.10;;;20.00;99.90;;;;;;5111253;28;20508;-55
2023/09/17 07:44:48;;;;;;;14.82;7.07;;;20.20;99.90;;;;;;5111376;28;20012;-57
2023/09/17 07:47:14;;;;;;;10.98;7.38;;;20.60;99.90;;;;;;5111205;28;20065;-54
2023/09/17 07:49:39;;;;;;;11.50;7.13;;;20.70;99.90;;;;;;5111150;28;20024;-49
2023/09/17 07:52:06;;;;;;;12.70;7.47;;;20.80;99.90;;;;;;5111205;28;20067;-55
2023/09/17 07:54:39;;;;;;;11.00;6.93;;;21.00;99.90;;;;;;5111109;28;20490;-59
2023/09/17 07:57:06;;;;;;;10.95;6.40;;;21.00;99.90;;;;;;5111302;28;20031;-49
2023/09/17 07:59:32;;;;;;;12.93;6.53;;;21.10;99.90;;;;;;5110904;28;20016;-56
2023/09/17 08:01:58;;;;;;;12.43;6.80;;;21.10;99.90;;;;;;5111422;27;20365;-55
2023/09/17 08:04:24;;;;;;;11.02;6.70;;;21.20;99.90;;;;;;5111047;28;20106;-58
2023/09/17 08:06:50;;;;;;;13.55;7.28;;;21.20;99.90;;;;;;5124001;27;20466;-54
2023/09/17 08:09:16;;;;;;;12.15;7.28;;;21.00;99.90;;;;;;5111098;27;20100;-49
2023/09/17 08:11:43;;;;;;;12.45;6.45;;;20.80;99.90;;;;;;5111254;27;20123;-46
2023/09/17 08:14:09;;;;;;;11.45;6.70;;;20.90;99.90;;;;;;5110844;28;20111;-48
2023/09/17 08:16:35;;;;;;;12.27;7.50;;;20.80;99.90;;;;;;5110543;28;20032;-55
2023/09/17 08:19:01;;;;;;;10.98;7.13;;;20.80;99.90;;;;;;5116922;28;20107;-48
2023/09/17 08:21:27;;;;;;;15.38;8.45;;;20.80;99.90;;;;;;5110725;28;20081;-54
2023/09/17 08:23:53;;;;;;;12.32;7.70;;;20.80;99.90;;;;;;5114335;28;20157;-45
2023/09/17 08:26:21;;;;;;;14.18;7.32;;;20.80;99.90;;;;;;5115083;28;20430;-52
2023/09/17 08:28:49;;;;;;;12.77;7.95;;;20.70;99.90;;;;;;5116768;27;20081;-59
2023/09/17 08:31:16;;;;;;;14.13;7.43;;;20.80;99.90;;;;;;5135632;27;20031;-53
2023/09/17 08:33:42;;;;;;;11.45;7.80;;;20.70;99.90;;;;;;5135620;27;20153;-46
2023/09/17 08:36:09;;;;;;;10.05;6.53;;;20.70;99.90;;;;;;5135695;27;20035;-53
2023/09/17 08:38:36;;;;;;;11.48;7.45;;;20.90;99.90;;;;;;5135293;27;20055;-50
2023/09/17 08:41:03;;;;;;;11.38;7.35;;;21.00;99.90;;;;;;5135413;27;20102;-49
2023/09/17 08:43:28;;;;;;;14.57;8.10;;;21.20;99.90;;;;;;5135247;27;20360;-50
2023/09/17 08:45:54;;;;;;;9.63;6.78;;;21.10;99.90;;;;;;5135394;27;20040;-54
2023/09/17 08:48:22;;;;;;;8.35;5.93;;;21.30;99.90;;;;;;5135435;27;20072;-53
2023/09/17 08:50:50;;;;;;;11.95;7.93;;;21.60;99.90;;;;;;5135054;27;20407;-50
2023/09/17 08:53:22;;;;;;;10.60;6.05;;;21.60;99.90;;;;;;5131143;27;20027;-52
2023/09/17 08:55:50;;;;;;;10.35;5.63;;;21.70;99.90;;;;;;5134990;27;20131;-49
2023/09/17 08:58:21;;;;;;;11.25;4.95;;;21.80;99.90;;;;;;5135199;27;20498;-45
2023/09/17 09:00:51;;;;;;;6.65;4.03;;;21.80;99.90;;;;;;5134890;27;20019;-44
2023/09/17 09:03:20;;;;;;;6.55;3.88;;;21.80;99.90;;;;;;5135007;27;20015;-43
2023/09/17 09:05:47;;;;;;;9.77;4.07;;;21.60;99.90;;;;;;5124820;27;20024;-60
2023/09/17 09:08:13;;;;;;;8.43;3.58;;;21.60;99.90;;;;;;5116096;27;20054;-53
2023/09/17 09:10:40;;;;;;;6.85;3.05;;;21.70;99.90;;;;;;5113646;28;20011;-56
2023/09/17 09:13:05;;;;;;;4.18;2.72;;;21.70;99.90;;;;;;5114191;28;20207;-47
2023/09/17 09:15:32;;;;;;;4.95;2.75;;;21.80;99.90;;;;;;5114258;28;20477;-43
2023/09/17 09:17:58;;;;;;;5.25;2.40;;;22.20;99.90;;;;;;5114039;28;20028;-61
2023/09/17 09:20:24;;;;;;;5.15;2.10;;;22.60;99.90;;;;;;5114149;28;20034;-56
2023/09/17 09:22:49;;;;;;;5.47;2.28;;;22.80;99.90;;;;;;5113915;28;20036;-53
2023/09/17 09:25:18;;;;;;;4.63;2.22;;;22.70;99.90;;;;;;5112262;28;20493;-57
2023/09/17 09:27:44;;;;;;;3.70;1.88;;;23.10;99.90;;;;;;5112691;28;20024;-52
2023/09/17 09:30:11;;;;;;;2.92;1.63;;;23.40;99.90;;;;;;5118488;27;20015;-47
2023/09/17 09:32:38;;;;;;;4.18;2.03;;;23.60;99.90;;;;;;5120021;27;20032;-49
2023/09/17 09:35:05;;;;;;;4.00;1.75;;;24.10;99.90;;;;;;5119880;27;20023;-50
2023/09/17 09:37:31;;;;;;;3.92;1.98;;;24.30;99.90;;;;;;5095342;28;20440;-53
2023/09/17 09:39:58;;;;;;;3.25;1.83;;;24.40;99.90;;;;;;5103357;28;20438;-51
2023/09/17 09:42:25;;;;;;;2.63;1.60;;;23.90;99.90;;;;;;5114984;27;20048;-43
2023/09/17 09:44:54;;;;;;;3.53;1.50;;;23.40;99.90;;;;;;5125907;27;20032;-53
2023/09/17 09:47:21;;;;;;;;;;;23.00;99.90;;;;;;5114008;27;20028;-50
2023/09/17 09:49:47;;;;;;;5.85;1.80;;;22.60;99.90;;;;;;5113364;28;19943;-50
2023/09/17 09:52:14;;;;;;;3.50;1.90;;;22.30;99.90;;;;;;5113395;28;20059;-55
2023/09/17 09:54:44;;;;;;;3.97;1.90;;;22.20;99.90;;;;;;5113418;27;20550;-58
2023/09/17 09:57:15;;;;;;;5.60;2.15;;;22.00;99.90;;;;;;5116315;27;20051;-50
2023/09/17 09:59:47;;;;;;;3.45;1.88;;;21.90;99.90;;;;;;5116801;27;20015;-42
2023/09/17 10:02:20;;;;;;;4.07;2.33;;;21.80;99.90;;;;;;5116062;27;20487;-47
2023/09/17 10:04:46;;;;;;;5.80;2.35;;;21.80;99.90;;;;;;5113020;28;20012;-45
2023/09/17 10:07:14;;;;;;;3.25;2.13;;;21.60;99.90;;;;;;5112692;28;20034;-52
2023/09/17 10:09:41;;;;;;;4.00;2.13;;;21.60;99.90;;;;;;5112820;28;20020;-44
2023/09/17 10:12:07;;;;;;;4.07;2.38;;;21.50;99.90;;;;;;5111734;28;20059;-61
2023/09/17 10:14:42;;;;;;;9.40;2.78;;;21.40;99.90;;;;;;5113016;28;20043;-56
2023/09/17 10:17:10;;;;;;;4.68;2.78;;;21.30;99.90;;;;;;5111148;27;20015;-51
2023/09/17 10:19:37;;;;;;;6.60;3.80;;;21.10;99.90;;;;;;5112130;28;20382;-52
2023/09/17 10:22:07;;;;;;;5.63;3.30;;;21.00;99.90;;;;;;5112257;28;20015;-46
2023/09/17 10:24:36;;;;;;;6.85;3.33;;;20.90;99.90;;;;;;5112763;28;20019;-49
2023/09/17 10:27:06;;;;;;;5.10;3.40;;;20.90;99.90;;;;;;5112700;28;20016;-51
2023/09/17 10:29:33;;;;;;;5.88;3.47;;;21.00;99.90;;;;;;5121030;27;20039;-44
2023/09/17 10:32:01;;;;;;;6.43;3.40;;;21.00;99.90;;;;;;5133182;27;20063;-50
2023/09/17 10:34:28;;;;;;;5.82;3.20;;;20.90;99.90;;;;;;5133372;27;20027;-52
2023/09/17 10:36:55;;;;;;;6.07;3.85;;;20.80;99.90;;;;;;5133178;27;20038;-54
2023/09/17 10:39:26;;;;;;;9.40;4.88;;;20.80;99.90;;;;;;5132759;27;20046;-52
2023/09/17 10:41:52;;;;;;;8.05;4.35;;;20.80;99.90;;;;;;5133121;27;20031;-55
2023/09/17 10:44:21;;;;;;;7.88;4.45;;;20.70;99.90;;;;;;5132949;27;20024;-51
2023/09/17 10:46:48;;;;;;;8.20;4.32;;;20.60;99.90;;;;;;5132217;27;20027;-57
2023/09/17 10:49:16;;;;;;;6.85;4.05;;;20.60;99.90;;;;;;5133057;27;20066;-45
2023/09/17 10:51:44;;;;;;;7.60;5.07;;;20.50;99.90;;;;;;5132967;27;20043;-51
2023/09/17 10:54:10;;;;;;;7.93;4.82;;;20.40;99.90;;;;;;5132896;27;20015;-56
2023/09/17 10:56:41;;;;;;;8.05;5.18;;;20.20;99.90;;;;;;5132671;27;20364;-50
2023/09/17 10:59:11;;;;;;;7.60;5.13;;;20.30;99.90;;;;;;5132768;27;20483;-52
2023/09/17 11:01:38;;;;;;;8.32;5.72;;;20.20;99.90;;;;;;5132695;27;20039;-46
2023/09/17 11:04:16;;;;;;;8.38;5.60;;;20.10;99.90;;;;;;5132764;27;20023;-45
2023/09/17 11:06:44;;;;;;;13.52;7.03;;;20.00;99.90;;;;;;5132678;27;20070;-58
2023/09/17 11:09:11;;;;;;;12.15;7.78;;;20.00;99.90;;;;;;5132723;27;20511;-53
2023/09/17 11:11:37;;;;;;;13.85;8.80;;;19.90;99.90;;;;;;5132298;27;20040;-50
2023/09/17 11:14:04;;;;;;;22.38;9.20;;;19.80;99.90;;;;;;5132465;27;20023;-45
2023/09/17 11:16:32;;;;;;;15.88;8.90;;;19.70;99.90;;;;;;5132362;27;22283;-56
2023/09/17 11:19:09;;;;;;;16.20;9.65;;;19.50;99.90;;;;;;5132410;27;20076;-47
2023/09/17 11:21:56;;;;;;;13.98;8.43;;;19.30;99.90;;;;;;5132159;27;20114;-47
2023/09/17 11:24:22;;;;;;;15.25;9.30;;;19.30;99.90;;;;;;5117894;27;20514;-47
2023/09/17 11:26:48;;;;;;;17.30;10.35;;;19.20;99.90;;;;;;5132270;27;20023;-47
2023/09/17 11:29:14;;;;;;;18.52;10.00;;;19.10;99.90;;;;;;5117804;27;20016;-53
2023/09/17 11:31:52;;;;;;;16.92;10.32;;;19.00;99.90;;;;;;5132178;27;20055;-46
2023/09/17 11:34:18;;;;;;;17.23;9.98;;;18.90;99.90;;;;;;5132112;27;20494;-42
2023/09/17 11:36:46;;;;;;;15.52;8.98;;;19.00;99.90;;;;;;5132082;27;20031;-48
2023/09/17 11:39:15;;;;;;;13.68;8.95;;;18.90;99.90;;;;;;5131893;27;20047;-55
2023/09/17 11:41:46;;;;;;;15.63;8.98;;;18.90;99.90;;;;;;5132020;27;20034;-52
2023/09/17 11:44:12;;;;;;;15.07;9.10;;;18.90;99.90;;;;;;5131888;27;20023;-53
2023/09/17 11:46:40;;;;;;;14.68;9.15;;;18.90;99.90;;;;;;5131853;27;20384;-52
2023/09/17 11:49:08;;;;;;;14.35;9.55;;;18.90;99.90;;;;;;5131741;27;20057;-51
2023/09/17 11:51:34;;;;;;;13.60;9.27;;;18.90;99.90;;;;;;5131826;27;20027;-54
2023/09/17 11:54:05;;;;;;;16.58;9.50;;;19.00;99.90;;;;;;5131843;27;20455;-46
2023/09/17 11:56:33;;;;;;;14.90;9.52;;;19.10;99.90;;;;;;5131682;27;20027;-55
2023/09/17 11:59:08;;;;;;;16.95;10.07;;;19.20;99.90;;;;;;5131758;27;20083;-50
2023/09/17 12:01:40;;;;;;;17.85;10.48;;;19.30;99.90;;;;;;5131759;27;20062;-55
2023/09/17 12:04:08;;;;;;;17.65;10.25;;;19.30;99.90;;;;;;5131804;27;20020;-50
2023/09/17 12:06:38;;;;;;;17.52;10.73;;;19.50;99.90;;;;;;5124735;27;20024;-53
2023/09/17 12:09:10;;;;;;;;;;;19.50;99.90;;;;;;5111769;28;20035;-53
2023/09/17 12:11:36;;;;;;;17.67;10.75;;;19.60;99.90;;;;;;5110781;28;19915;-52
2023/09/17 12:14:06;;;;;;;20.60;10.82;;;19.60;99.90;;;;;;5110992;28;20027;-56
2023/09/17 12:16:32;;;;;;;19.05;10.95;;;19.70;99.90;;;;;;5111288;28;20053;-45
2023/09/17 12:18:58;;;;;;;21.58;11.07;;;19.70;99.90;;;;;;5118687;27;20034;-44
2023/09/17 12:21:27;;;;;;;17.38;10.52;;;19.80;99.90;;;;;;5116969;28;20080;-51
2023/09/17 12:24:06;;;;;;;21.13;11.32;;;19.70;99.90;;;;;;5115273;28;20024;-44
2023/09/17 12:27:19;;;;;;;;;;;19.70;99.90;;;;;;5117107;28;20471;-42
2023/09/17 12:29:38;;;;;;;20.02;10.50;;;19.80;99.90;;;;;;5109529;28;19907;-41
2023/09/17 12:32:04;;;;;;;16.38;11.27;;;19.80;99.90;;;;;;5114309;27;20072;-41
2023/09/17 12:34:33;;;;;;;15.18;11.07;;;19.80;99.90;;;;;;5113930;28;20134;-47